sensor_id;sensor_type;location;lat;lon;timestamp;P1;durP1;ratioP1;P2;durP2;ratioP2
64157;SDS011;50449;51.528;5.076;2022-11-14T00:00:54;24.05;;;22.25;;
64157;SDS011;50449;51.528;5.076;2022-11-14T00:03:19;23.33;;;21.50;;
64157;SDS011;50449;51.528;5.076;2022-11-14T00:05:45;25.58;;;23.48;;
64157;SDS011;50449;51.528;5.076;2022-11-14T00:08:15;24.60;;;22.75;;
64157;SDS011;50449;51.528;5.076;2022-11-14T00:10:45;24.33;;;22.38;;
64157;SDS011;50449;51.528;5.076;2022-11-14T00:13:12;26.38;;;23.70;;
64157;SDS011;50449;51.528;5.076;2022-11-14T00:15:38;25.02;;;23.23;;
64157;SDS011;50449;51.528;5.076;2022-11-14T00:18:03;26.10;;;24.23;;
64157;SDS011;50449;51.528;5.076;2022-11-14T00:20:28;26.48;;;24.42;;
64157;SDS011;50449;51.528;5.076;2022-11-14T00:22:54;25.75;;;23.45;;
64157;SDS011;50449;51.528;5.076;2022-11-14T00:25:19;25.13;;;23.35;;
64157;SDS011;50449;51.528;5.076;2022-11-14T00:27:44;23.33;;;21.83;;
64157;SDS011;50449;51.528;5.076;2022-11-14T00:30:10;25.25;;;23.48;;
64157;SDS011;50449;51.528;5.076;2022-11-14T00:32:35;23.92;;;22.02;;
64157;SDS011;50449;51.528;5.076;2022-11-14T00:35:01;25.65;;;23.23;;
64157;SDS011;50449;51.528;5.076;2022-11-14T00:37:26;26.10;;;23.95;;
64157;SDS011;50449;51.528;5.076;2022-11-14T00:39:51;23.85;;;22.05;;
64157;SDS011;50449;51.528;5.076;2022-11-14T00:42:17;23.58;;;21.75;;
64157;SDS011;50449;51.528;5.076;2022-11-14T00:44:42;23.92;;;22.02;;
64157;SDS011;50449;51.528;5.076;2022-11-14T00:47:07;25.08;;;23.20;;
64157;SDS011;50449;51.528;5.076;2022-11-14T00:49:33;23.45;;;21.65;;
64157;SDS011;50449;51.528;5.076;2022-11-14T00:51:58;24.67;;;22.48;;
64157;SDS011;50449;51.528;5.076;2022-11-14T00:54:23;23.27;;;21.63;;
64157;SDS011;50449;51.528;5.076;2022-11-14T00:56:50;23.42;;;21.70;;
64157;SDS011;50449;51.528;5.076;2022-11-14T00:59:16;22.85;;;21.00;;
64157;SDS011;50449;51.528;5.076;2022-11-14T01:01:41;25.77;;;23.77;;
64157;SDS011;50449;51.528;5.076;2022-11-14T01:04:06;22.27;;;20.67;;
64157;SDS011;50449;51.528;5.076;2022-11-14T01:06:32;24.77;;;22.70;;
64157;SDS011;50449;51.528;5.076;2022-11-14T01:08:57;24.17;;;22.05;;
64157;SDS011;50449;51.528;5.076;2022-11-14T01:11:22;24.73;;;22.77;;
64157;SDS011;50449;51.528;5.076;2022-11-14T01:13:48;23.45;;;21.75;;
64157;SDS011;50449;51.528;5.076;2022-11-14T01:16:13;22.80;;;21.08;;
64157;SDS011;50449;51.528;5.076;2022-11-14T01:18:39;23.77;;;22.08;;
64157;SDS011;50449;51.528;5.076;2022-11-14T01:21:06;23.98;;;22.17;;
64157;SDS011;50449;51.528;5.076;2022-11-14T01:23:32;25.83;;;23.55;;
64157;SDS011;50449;51.528;5.076;2022-11-14T01:26:05;23.13;;;21.40;;
64157;SDS011;50449;51.528;5.076;2022-11-14T01:28:32;24.20;;;22.23;;
64157;SDS011;50449;51.528;5.076;2022-11-14T01:33:49;23.60;;;21.63;;
64157;SDS011;50449;51.528;5.076;2022-11-14T01:36:16;23.48;;;21.77;;
64157;SDS011;50449;51.528;5.076;2022-11-14T01:38:42;24.30;;;22.52;;
64157;SDS011;50449;51.528;5.076;2022-11-14T01:41:08;23.65;;;21.77;;
64157;SDS011;50449;51.528;5.076;2022-11-14T01:43:37;23.63;;;21.88;;
64157;SDS011;50449;51.528;5.076;2022-11-14T01:46:09;23.10;;;21.40;;
64157;SDS011;50449;51.528;5.076;2022-11-14T01:51:22;23.00;;;21.50;;
64157;SDS011;50449;51.528;5.076;2022-11-14T01:53:53;22.25;;;20.58;;
64157;SDS011;50449;51.528;5.076;2022-11-14T01:56:22;23.10;;;21.37;;
64157;SDS011;50449;51.528;5.076;2022-11-14T01:58:53;22.50;;;21.00;;
64157;SDS011;50449;51.528;5.076;2022-11-14T02:01:25;22.67;;;21.10;;
64157;SDS011;50449;51.528;5.076;2022-11-14T02:03:52;21.83;;;20.17;;
64157;SDS011;50449;51.528;5.076;2022-11-14T02:06:20;23.33;;;21.50;;
64157;SDS011;50449;51.528;5.076;2022-11-14T02:08:48;24.57;;;22.77;;
64157;SDS011;50449;51.528;5.076;2022-11-14T02:11:15;23.73;;;21.85;;
64157;SDS011;50449;51.528;5.076;2022-11-14T02:13:40;25.52;;;23.15;;
64157;SDS011;50449;51.528;5.076;2022-11-14T02:16:05;22.40;;;20.80;;
64157;SDS011;50449;51.528;5.076;2022-11-14T02:18:31;22.83;;;21.27;;
64157;SDS011;50449;51.528;5.076;2022-11-14T02:20:56;23.83;;;21.85;;
64157;SDS011;50449;51.528;5.076;2022-11-14T02:23:25;23.60;;;21.90;;
64157;SDS011;50449;51.528;5.076;2022-11-14T02:25:52;22.20;;;20.67;;
64157;SDS011;50449;51.528;5.076;2022-11-14T02:28:18;23.50;;;21.67;;
64157;SDS011;50449;51.528;5.076;2022-11-14T02:30:45;25.25;;;23.23;;
64157;SDS011;50449;51.528;5.076;2022-11-14T02:33:11;24.33;;;22.63;;
64157;SDS011;50449;51.528;5.076;2022-11-14T02:35:36;24.90;;;22.10;;
64157;SDS011;50449;51.528;5.076;2022-11-14T02:38:01;23.35;;;21.52;;
64157;SDS011;50449;51.528;5.076;2022-11-14T02:40:27;23.52;;;21.92;;
64157;SDS011;50449;51.528;5.076;2022-11-14T02:42:52;23.23;;;21.42;;
64157;SDS011;50449;51.528;5.076;2022-11-14T02:45:17;21.77;;;20.33;;
64157;SDS011;50449;51.528;5.076;2022-11-14T02:47:44;22.83;;;21.20;;
64157;SDS011;50449;51.528;5.076;2022-11-14T02:50:10;21.67;;;20.08;;
64157;SDS011;50449;51.528;5.076;2022-11-14T02:52:35;25.10;;;20.55;;
64157;SDS011;50449;51.528;5.076;2022-11-14T02:55:01;22.27;;;20.63;;
64157;SDS011;50449;51.528;5.076;2022-11-14T02:57:27;23.00;;;21.40;;
64157;SDS011;50449;51.528;5.076;2022-11-14T02:59:52;23.92;;;22.08;;
64157;SDS011;50449;51.528;5.076;2022-11-14T03:02:18;24.45;;;22.48;;
64157;SDS011;50449;51.528;5.076;2022-11-14T03:04:43;21.80;;;20.23;;
64157;SDS011;50449;51.528;5.076;2022-11-14T03:07:08;22.35;;;20.75;;
64157;SDS011;50449;51.528;5.076;2022-11-14T03:09:34;21.73;;;20.27;;
64157;SDS011;50449;51.528;5.076;2022-11-14T03:11:59;23.70;;;22.08;;
64157;SDS011;50449;51.528;5.076;2022-11-14T03:14:24;22.67;;;21.08;;
64157;SDS011;50449;51.528;5.076;2022-11-14T03:16:50;24.05;;;22.33;;
64157;SDS011;50449;51.528;5.076;2022-11-14T03:19:15;22.90;;;21.33;;
64157;SDS011;50449;51.528;5.076;2022-11-14T03:21:41;22.50;;;20.70;;
64157;SDS011;50449;51.528;5.076;2022-11-14T03:24:06;22.35;;;20.85;;
64157;SDS011;50449;51.528;5.076;2022-11-14T03:26:32;22.60;;;21.10;;
64157;SDS011;50449;51.528;5.076;2022-11-14T03:28:57;22.70;;;20.95;;
64157;SDS011;50449;51.528;5.076;2022-11-14T03:31:22;21.83;;;20.23;;
64157;SDS011;50449;51.528;5.076;2022-11-14T03:33:48;23.45;;;21.75;;
64157;SDS011;50449;51.528;5.076;2022-11-14T03:36:13;22.90;;;21.30;;
64157;SDS011;50449;51.528;5.076;2022-11-14T03:38:39;21.63;;;20.13;;
64157;SDS011;50449;51.528;5.076;2022-11-14T03:41:04;21.80;;;20.20;;
64157;SDS011;50449;51.528;5.076;2022-11-14T03:43:31;21.15;;;19.58;;
64157;SDS011;50449;51.528;5.076;2022-11-14T03:45:58;24.67;;;22.73;;
64157;SDS011;50449;51.528;5.076;2022-11-14T03:48:24;21.88;;;20.38;;
64157;SDS011;50449;51.528;5.076;2022-11-14T03:50:50;21.42;;;19.80;;
64157;SDS011;50449;51.528;5.076;2022-11-14T03:53:15;21.73;;;20.23;;
64157;SDS011;50449;51.528;5.076;2022-11-14T03:55:44;21.65;;;19.92;;
64157;SDS011;50449;51.528;5.076;2022-11-14T03:58:09;21.88;;;19.95;;
64157;SDS011;50449;51.528;5.076;2022-11-14T04:00:35;21.00;;;19.70;;
64157;SDS011;50449;51.528;5.076;2022-11-14T04:03:00;22.23;;;20.55;;
64157;SDS011;50449;51.528;5.076;2022-11-14T04:05:25;21.15;;;19.65;;
64157;SDS011;50449;51.528;5.076;2022-11-14T04:07:51;22.83;;;21.13;;
64157;SDS011;50449;51.528;5.076;2022-11-14T04:10:16;22.02;;;20.27;;
64157;SDS011;50449;51.528;5.076;2022-11-14T04:12:52;22.63;;;20.95;;
64157;SDS011;50449;51.528;5.076;2022-11-14T04:15:18;21.13;;;19.75;;
64157;SDS011;50449;51.528;5.076;2022-11-14T04:17:44;20.70;;;19.20;;
64157;SDS011;50449;51.528;5.076;2022-11-14T04:20:10;20.75;;;19.35;;
64157;SDS011;50449;51.528;5.076;2022-11-14T04:22:37;20.85;;;19.38;;
64157;SDS011;50449;51.528;5.076;2022-11-14T04:25:03;21.63;;;19.55;;
64157;SDS011;50449;51.528;5.076;2022-11-14T04:27:30;20.27;;;18.92;;
64157;SDS011;50449;51.528;5.076;2022-11-14T04:29:55;23.70;;;22.00;;
64157;SDS011;50449;51.528;5.076;2022-11-14T04:32:20;23.30;;;21.55;;
64157;SDS011;50449;51.528;5.076;2022-11-14T04:34:45;22.75;;;20.95;;
64157;SDS011;50449;51.528;5.076;2022-11-14T04:37:11;20.17;;;18.88;;
64157;SDS011;50449;51.528;5.076;2022-11-14T04:39:36;21.73;;;20.23;;
64157;SDS011;50449;51.528;5.076;2022-11-14T04:42:02;21.25;;;19.65;;
64157;SDS011;50449;51.528;5.076;2022-11-14T04:44:27;22.33;;;19.50;;
64157;SDS011;50449;51.528;5.076;2022-11-14T04:46:53;23.08;;;21.25;;
64157;SDS011;50449;51.528;5.076;2022-11-14T04:49:18;21.50;;;20.00;;
64157;SDS011;50449;51.528;5.076;2022-11-14T04:51:44;21.48;;;19.98;;
64157;SDS011;50449;51.528;5.076;2022-11-14T04:54:09;21.42;;;19.98;;
64157;SDS011;50449;51.528;5.076;2022-11-14T04:56:35;19.45;;;18.15;;
64157;SDS011;50449;51.528;5.076;2022-11-14T04:59:00;21.95;;;20.20;;
64157;SDS011;50449;51.528;5.076;2022-11-14T05:01:26;22.40;;;20.35;;
64157;SDS011;50449;51.528;5.076;2022-11-14T05:03:51;19.98;;;18.52;;
64157;SDS011;50449;51.528;5.076;2022-11-14T05:06:19;21.33;;;19.85;;
64157;SDS011;50449;51.528;5.076;2022-11-14T05:08:45;20.55;;;19.08;;
64157;SDS011;50449;51.528;5.076;2022-11-14T05:11:12;20.63;;;19.20;;
64157;SDS011;50449;51.528;5.076;2022-11-14T05:13:39;21.27;;;19.80;;
64157;SDS011;50449;51.528;5.076;2022-11-14T05:16:04;21.45;;;19.85;;
64157;SDS011;50449;51.528;5.076;2022-11-14T05:18:30;22.20;;;20.67;;
64157;SDS011;50449;51.528;5.076;2022-11-14T05:20:56;21.23;;;19.75;;
64157;SDS011;50449;51.528;5.076;2022-11-14T05:23:23;22.42;;;21.02;;
64157;SDS011;50449;51.528;5.076;2022-11-14T05:25:58;21.30;;;19.02;;
64157;SDS011;50449;51.528;5.076;2022-11-14T05:28:28;20.80;;;19.35;;
64157;SDS011;50449;51.528;5.076;2022-11-14T05:30:59;21.52;;;19.77;;
64157;SDS011;50449;51.528;5.076;2022-11-14T05:33:28;21.45;;;19.80;;
64157;SDS011;50449;51.528;5.076;2022-11-14T05:35:54;21.63;;;20.15;;
64157;SDS011;50449;51.528;5.076;2022-11-14T05:38:19;20.42;;;19.05;;
64157;SDS011;50449;51.528;5.076;2022-11-14T05:40:45;21.35;;;19.77;;
64157;SDS011;50449;51.528;5.076;2022-11-14T05:43:10;22.38;;;20.63;;
64157;SDS011;50449;51.528;5.076;2022-11-14T05:45:35;21.58;;;20.17;;
64157;SDS011;50449;51.528;5.076;2022-11-14T05:48:01;20.77;;;19.23;;
64157;SDS011;50449;51.528;5.076;2022-11-14T05:50:26;21.08;;;19.73;;
64157;SDS011;50449;51.528;5.076;2022-11-14T05:52:51;21.15;;;19.35;;
64157;SDS011;50449;51.528;5.076;2022-11-14T05:55:17;20.02;;;18.73;;
64157;SDS011;50449;51.528;5.076;2022-11-14T05:57:42;20.35;;;18.83;;
64157;SDS011;50449;51.528;5.076;2022-11-14T06:00:07;21.02;;;19.42;;
64157;SDS011;50449;51.528;5.076;2022-11-14T06:02:33;18.73;;;17.38;;
64157;SDS011;50449;51.528;5.076;2022-11-14T06:04:59;20.40;;;18.88;;
64157;SDS011;50449;51.528;5.076;2022-11-14T06:07:24;20.13;;;18.83;;
64157;SDS011;50449;51.528;5.076;2022-11-14T06:09:50;21.85;;;20.25;;
64157;SDS011;50449;51.528;5.076;2022-11-14T06:12:15;21.05;;;19.35;;
64157;SDS011;50449;51.528;5.076;2022-11-14T06:14:41;20.08;;;18.60;;
64157;SDS011;50449;51.528;5.076;2022-11-14T06:17:06;22.70;;;21.13;;
64157;SDS011;50449;51.528;5.076;2022-11-14T06:19:31;20.30;;;18.80;;
64157;SDS011;50449;51.528;5.076;2022-11-14T06:21:57;20.00;;;18.63;;
64157;SDS011;50449;51.528;5.076;2022-11-14T06:24:22;20.83;;;19.02;;
64157;SDS011;50449;51.528;5.076;2022-11-14T06:26:47;19.50;;;18.10;;
64157;SDS011;50449;51.528;5.076;2022-11-14T06:29:13;23.00;;;21.40;;
64157;SDS011;50449;51.528;5.076;2022-11-14T06:31:38;19.95;;;18.55;;
64157;SDS011;50449;51.528;5.076;2022-11-14T06:34:04;20.23;;;18.75;;
64157;SDS011;50449;51.528;5.076;2022-11-14T06:36:30;20.77;;;18.80;;
64157;SDS011;50449;51.528;5.076;2022-11-14T06:38:55;20.08;;;18.80;;
64157;SDS011;50449;51.528;5.076;2022-11-14T06:41:20;19.75;;;18.30;;
64157;SDS011;50449;51.528;5.076;2022-11-14T06:43:47;21.33;;;19.60;;
64157;SDS011;50449;51.528;5.076;2022-11-14T06:46:15;20.52;;;18.83;;
64157;SDS011;50449;51.528;5.076;2022-11-14T06:48:42;19.25;;;17.92;;
64157;SDS011;50449;51.528;5.076;2022-11-14T06:51:09;21.15;;;19.65;;
64157;SDS011;50449;51.528;5.076;2022-11-14T06:53:35;20.27;;;18.77;;
64157;SDS011;50449;51.528;5.076;2022-11-14T06:56:02;20.00;;;18.50;;
64157;SDS011;50449;51.528;5.076;2022-11-14T06:58:28;19.92;;;18.60;;
64157;SDS011;50449;51.528;5.076;2022-11-14T07:00:56;22.23;;;20.52;;
64157;SDS011;50449;51.528;5.076;2022-11-14T07:03:28;21.23;;;19.73;;
64157;SDS011;50449;51.528;5.076;2022-11-14T07:05:56;19.73;;;18.30;;
64157;SDS011;50449;51.528;5.076;2022-11-14T07:08:22;20.35;;;18.45;;
64157;SDS011;50449;51.528;5.076;2022-11-14T07:10:47;20.35;;;18.95;;
64157;SDS011;50449;51.528;5.076;2022-11-14T07:13:13;20.67;;;18.75;;
64157;SDS011;50449;51.528;5.076;2022-11-14T07:15:38;20.42;;;19.02;;
64157;SDS011;50449;51.528;5.076;2022-11-14T07:18:03;20.13;;;18.58;;
64157;SDS011;50449;51.528;5.076;2022-11-14T07:20:29;20.38;;;18.92;;
64157;SDS011;50449;51.528;5.076;2022-11-14T07:22:54;19.38;;;17.95;;
64157;SDS011;50449;51.528;5.076;2022-11-14T07:25:20;22.00;;;20.15;;
64157;SDS011;50449;51.528;5.076;2022-11-14T07:27:46;21.80;;;19.90;;
64157;SDS011;50449;51.528;5.076;2022-11-14T07:30:12;21.88;;;20.27;;
64157;SDS011;50449;51.528;5.076;2022-11-14T07:32:38;20.95;;;19.23;;
64157;SDS011;50449;51.528;5.076;2022-11-14T07:35:03;21.63;;;19.67;;
64157;SDS011;50449;51.528;5.076;2022-11-14T07:37:29;19.88;;;18.38;;
64157;SDS011;50449;51.528;5.076;2022-11-14T07:39:54;19.70;;;18.30;;
64157;SDS011;50449;51.528;5.076;2022-11-14T07:42:19;25.80;;;23.58;;
64157;SDS011;50449;51.528;5.076;2022-11-14T07:44:45;19.70;;;18.25;;
64157;SDS011;50449;51.528;5.076;2022-11-14T07:47:10;19.05;;;17.70;;
64157;SDS011;50449;51.528;5.076;2022-11-14T07:49:35;20.45;;;19.05;;
64157;SDS011;50449;51.528;5.076;2022-11-14T07:52:01;19.83;;;18.42;;
64157;SDS011;50449;51.528;5.076;2022-11-14T07:54:26;19.63;;;18.23;;
64157;SDS011;50449;51.528;5.076;2022-11-14T07:56:51;20.83;;;19.33;;
64157;SDS011;50449;51.528;5.076;2022-11-14T07:59:17;20.63;;;18.80;;
64157;SDS011;50449;51.528;5.076;2022-11-14T08:01:42;20.25;;;18.75;;
64157;SDS011;50449;51.528;5.076;2022-11-14T08:04:08;21.23;;;19.50;;
64157;SDS011;50449;51.528;5.076;2022-11-14T08:06:33;19.58;;;18.08;;
64157;SDS011;50449;51.528;5.076;2022-11-14T08:08:58;19.23;;;17.92;;
64157;SDS011;50449;51.528;5.076;2022-11-14T08:11:24;22.20;;;20.13;;
64157;SDS011;50449;51.528;5.076;2022-11-14T08:14:07;20.38;;;18.50;;
64157;SDS011;50449;51.528;5.076;2022-11-14T08:16:33;21.10;;;19.48;;
64157;SDS011;50449;51.528;5.076;2022-11-14T08:18:59;19.60;;;18.17;;
64157;SDS011;50449;51.528;5.076;2022-11-14T08:21:24;21.42;;;19.63;;
64157;SDS011;50449;51.528;5.076;2022-11-14T08:23:49;19.98;;;18.42;;
64157;SDS011;50449;51.528;5.076;2022-11-14T08:26:15;20.80;;;19.10;;
64157;SDS011;50449;51.528;5.076;2022-11-14T08:28:40;21.05;;;18.80;;
64157;SDS011;50449;51.528;5.076;2022-11-14T08:31:05;19.45;;;17.77;;
64157;SDS011;50449;51.528;5.076;2022-11-14T08:33:31;20.10;;;18.42;;
64157;SDS011;50449;51.528;5.076;2022-11-14T08:36:03;20.95;;;19.25;;
64157;SDS011;50449;51.528;5.076;2022-11-14T08:38:29;21.23;;;19.60;;
64157;SDS011;50449;51.528;5.076;2022-11-14T08:40:56;18.92;;;17.38;;
64157;SDS011;50449;51.528;5.076;2022-11-14T08:43:23;20.55;;;19.02;;
64157;SDS011;50449;51.528;5.076;2022-11-14T08:45:48;19.17;;;17.67;;
64157;SDS011;50449;51.528;5.076;2022-11-14T08:48:13;20.45;;;19.05;;
64157;SDS011;50449;51.528;5.076;2022-11-14T08:50:39;20.92;;;19.13;;
64157;SDS011;50449;51.528;5.076;2022-11-14T08:53:04;20.23;;;18.92;;
64157;SDS011;50449;51.528;5.076;2022-11-14T08:55:30;23.58;;;21.75;;
64157;SDS011;50449;51.528;5.076;2022-11-14T08:57:55;19.90;;;18.42;;
64157;SDS011;50449;51.528;5.076;2022-11-14T09:00:20;21.52;;;19.77;;
64157;SDS011;50449;51.528;5.076;2022-11-14T09:02:48;20.23;;;18.80;;
64157;SDS011;50449;51.528;5.076;2022-11-14T09:05:14;20.75;;;18.95;;
64157;SDS011;50449;51.528;5.076;2022-11-14T09:07:39;21.90;;;20.02;;
64157;SDS011;50449;51.528;5.076;2022-11-14T09:10:05;20.15;;;18.73;;
64157;SDS011;50449;51.528;5.076;2022-11-14T09:12:31;21.77;;;19.98;;
64157;SDS011;50449;51.528;5.076;2022-11-14T09:14:57;19.52;;;17.92;;
64157;SDS011;50449;51.528;5.076;2022-11-14T09:17:22;20.67;;;18.95;;
64157;SDS011;50449;51.528;5.076;2022-11-14T09:19:48;18.77;;;17.27;;
64157;SDS011;50449;51.528;5.076;2022-11-14T09:22:14;19.27;;;17.77;;
64157;SDS011;50449;51.528;5.076;2022-11-14T09:24:39;19.05;;;17.55;;
64157;SDS011;50449;51.528;5.076;2022-11-14T09:27:05;19.52;;;17.90;;
64157;SDS011;50449;51.528;5.076;2022-11-14T09:29:30;20.45;;;18.85;;
64157;SDS011;50449;51.528;5.076;2022-11-14T09:31:55;19.48;;;18.00;;
64157;SDS011;50449;51.528;5.076;2022-11-14T09:34:21;20.98;;;19.40;;
64157;SDS011;50449;51.528;5.076;2022-11-14T09:36:46;20.27;;;18.77;;
64157;SDS011;50449;51.528;5.076;2022-11-14T09:39:12;19.33;;;17.92;;
64157;SDS011;50449;51.528;5.076;2022-11-14T09:47:30;19.63;;;18.02;;
64157;SDS011;50449;51.528;5.076;2022-11-14T09:50:22;17.95;;;16.55;;
64157;SDS011;50449;51.528;5.076;2022-11-14T09:52:56;19.70;;;18.15;;
64157;SDS011;50449;51.528;5.076;2022-11-14T09:55:26;21.70;;;20.00;;
64157;SDS011;50449;51.528;5.076;2022-11-14T09:57:54;19.00;;;17.70;;
64157;SDS011;50449;51.528;5.076;2022-11-14T10:00:24;18.77;;;17.17;;
64157;SDS011;50449;51.528;5.076;2022-11-14T10:11:06;19.98;;;18.48;;
64157;SDS011;50449;51.528;5.076;2022-11-14T10:16:18;19.20;;;17.75;;
64157;SDS011;50449;51.528;5.076;2022-11-14T10:19:16;19.70;;;18.15;;
64157;SDS011;50449;51.528;5.076;2022-11-14T10:31:27;20.65;;;19.05;;
64157;SDS011;50449;51.528;5.076;2022-11-14T10:39:59;19.00;;;17.45;;
64157;SDS011;50449;51.528;5.076;2022-11-14T10:42:19;19.52;;;18.15;;
64157;SDS011;50449;51.528;5.076;2022-11-14T10:45:16;18.15;;;16.63;;
64157;SDS011;50449;51.528;5.076;2022-11-14T10:56:24;18.98;;;17.38;;
64157;SDS011;50449;51.528;5.076;2022-11-14T10:58:49;20.83;;;19.23;;
64157;SDS011;50449;51.528;5.076;2022-11-14T11:01:35;20.20;;;18.73;;
64157;SDS011;50449;51.528;5.076;2022-11-14T11:04:18;19.08;;;17.45;;
64157;SDS011;50449;51.528;5.076;2022-11-14T11:06:52;20.08;;;18.65;;
64157;SDS011;50449;51.528;5.076;2022-11-14T11:09:23;20.75;;;19.23;;
64157;SDS011;50449;51.528;5.076;2022-11-14T11:12:13;20.00;;;18.50;;
64157;SDS011;50449;51.528;5.076;2022-11-14T11:14:44;18.70;;;17.00;;
64157;SDS011;50449;51.528;5.076;2022-11-14T11:19:39;22.33;;;20.45;;
64157;SDS011;50449;51.528;5.076;2022-11-14T11:22:22;19.05;;;17.45;;
64157;SDS011;50449;51.528;5.076;2022-11-14T11:24:59;18.98;;;17.65;;
64157;SDS011;50449;51.528;5.076;2022-11-14T11:27:25;19.73;;;18.00;;
64157;SDS011;50449;51.528;5.076;2022-11-14T11:32:42;21.38;;;19.55;;
64157;SDS011;50449;51.528;5.076;2022-11-14T11:35:10;21.27;;;19.58;;
64157;SDS011;50449;51.528;5.076;2022-11-14T11:37:39;22.40;;;20.60;;
64157;SDS011;50449;51.528;5.076;2022-11-14T11:40:11;19.52;;;18.23;;
64157;SDS011;50449;51.528;5.076;2022-11-14T11:42:42;20.30;;;18.75;;
64157;SDS011;50449;51.528;5.076;2022-11-14T11:45:14;19.48;;;18.05;;
64157;SDS011;50449;51.528;5.076;2022-11-14T11:48:33;21.27;;;19.50;;
64157;SDS011;50449;51.528;5.076;2022-11-14T11:50:39;20.02;;;18.58;;
64157;SDS011;50449;51.528;5.076;2022-11-14T11:53:14;19.30;;;17.85;;
64157;SDS011;50449;51.528;5.076;2022-11-14T11:55:50;20.25;;;18.65;;
64157;SDS011;50449;51.528;5.076;2022-11-14T12:01:00;18.83;;;17.38;;
64157;SDS011;50449;51.528;5.076;2022-11-14T12:03:26;20.83;;;18.98;;
64157;SDS011;50449;51.528;5.076;2022-11-14T12:06:08;22.10;;;20.15;;
64157;SDS011;50449;51.528;5.076;2022-11-14T12:11:36;21.02;;;19.25;;
64157;SDS011;50449;51.528;5.076;2022-11-14T12:31:30;20.67;;;19.08;;
64157;SDS011;50449;51.528;5.076;2022-11-14T12:33:59;19.95;;;18.48;;
64157;SDS011;50449;51.528;5.076;2022-11-14T12:36:30;19.27;;;17.88;;
64157;SDS011;50449;51.528;5.076;2022-11-14T12:38:57;20.17;;;18.60;;
64157;SDS011;50449;51.528;5.076;2022-11-14T12:41:29;18.95;;;17.60;;
64157;SDS011;50449;51.528;5.076;2022-11-14T12:44:17;21.38;;;19.80;;
64157;SDS011;50449;51.528;5.076;2022-11-14T12:58:05;20.98;;;19.33;;
64157;SDS011;50449;51.528;5.076;2022-11-14T13:00:28;20.65;;;19.13;;
64157;SDS011;50449;51.528;5.076;2022-11-14T13:08:32;19.58;;;17.75;;
64157;SDS011;50449;51.528;5.076;2022-11-14T13:14:19;21.70;;;19.70;;
64157;SDS011;50449;51.528;5.076;2022-11-14T13:20:00;19.35;;;17.80;;
64157;SDS011;50449;51.528;5.076;2022-11-14T13:50:00;21.90;;;19.90;;
64157;SDS011;50449;51.528;5.076;2022-11-14T13:52:31;23.33;;;21.35;;
64157;SDS011;50449;51.528;5.076;2022-11-14T13:54:58;22.13;;;20.48;;
64157;SDS011;50449;51.528;5.076;2022-11-14T13:57:32;21.13;;;19.42;;
64157;SDS011;50449;51.528;5.076;2022-11-14T14:00:28;22.52;;;20.73;;
64157;SDS011;50449;51.528;5.076;2022-11-14T14:08:13;22.70;;;21.00;;
64157;SDS011;50449;51.528;5.076;2022-11-14T14:11:15;20.90;;;18.88;;
64157;SDS011;50449;51.528;5.076;2022-11-14T14:19:29;20.33;;;18.45;;
64157;SDS011;50449;51.528;5.076;2022-11-14T14:22:17;23.02;;;21.02;;
64157;SDS011;50449;51.528;5.076;2022-11-14T14:25:00;20.48;;;18.88;;
64157;SDS011;50449;51.528;5.076;2022-11-14T14:28:08;21.67;;;19.90;;
64157;SDS011;50449;51.528;5.076;2022-11-14T14:33:43;21.50;;;20.00;;
64157;SDS011;50449;51.528;5.076;2022-11-14T14:38:47;21.42;;;19.73;;
64157;SDS011;50449;51.528;5.076;2022-11-14T14:41:13;22.15;;;20.17;;
64157;SDS011;50449;51.528;5.076;2022-11-14T14:43:43;20.95;;;18.95;;
64157;SDS011;50449;51.528;5.076;2022-11-14T14:46:15;22.38;;;20.38;;
64157;SDS011;50449;51.528;5.076;2022-11-14T14:48:56;23.02;;;21.08;;
64157;SDS011;50449;51.528;5.076;2022-11-14T14:51:32;22.15;;;20.23;;
64157;SDS011;50449;51.528;5.076;2022-11-14T14:54:00;22.38;;;20.40;;
64157;SDS011;50449;51.528;5.076;2022-11-14T14:56:26;23.00;;;21.05;;
64157;SDS011;50449;51.528;5.076;2022-11-14T14:58:52;22.38;;;20.58;;
64157;SDS011;50449;51.528;5.076;2022-11-14T15:01:22;21.80;;;19.95;;
64157;SDS011;50449;51.528;5.076;2022-11-14T15:03:56;22.83;;;21.10;;
64157;SDS011;50449;51.528;5.076;2022-11-14T15:06:34;21.67;;;19.88;;
64157;SDS011;50449;51.528;5.076;2022-11-14T15:11:27;21.67;;;19.98;;
64157;SDS011;50449;51.528;5.076;2022-11-14T15:13:55;21.60;;;19.85;;
64157;SDS011;50449;51.528;5.076;2022-11-14T15:16:22;23.08;;;20.60;;
64157;SDS011;50449;51.528;5.076;2022-11-14T15:18:53;20.63;;;19.02;;
64157;SDS011;50449;51.528;5.076;2022-11-14T15:23:56;21.50;;;19.75;;
64157;SDS011;50449;51.528;5.076;2022-11-14T15:26:24;21.23;;;19.55;;
64157;SDS011;50449;51.528;5.076;2022-11-14T15:28:49;23.58;;;21.58;;
64157;SDS011;50449;51.528;5.076;2022-11-14T15:31:16;25.00;;;22.98;;
64157;SDS011;50449;51.528;5.076;2022-11-14T15:33:44;22.75;;;20.92;;
64157;SDS011;50449;51.528;5.076;2022-11-14T15:36:11;24.48;;;22.40;;
64157;SDS011;50449;51.528;5.076;2022-11-14T15:41:25;23.45;;;21.33;;
64157;SDS011;50449;51.528;5.076;2022-11-14T15:43:55;22.67;;;20.38;;
64157;SDS011;50449;51.528;5.076;2022-11-14T15:48:57;21.50;;;19.83;;
64157;SDS011;50449;51.528;5.076;2022-11-14T15:51:44;22.60;;;20.58;;
64157;SDS011;50449;51.528;5.076;2022-11-14T15:54:20;25.00;;;22.67;;
64157;SDS011;50449;51.528;5.076;2022-11-14T15:56:51;20.67;;;18.98;;
64157;SDS011;50449;51.528;5.076;2022-11-14T15:59:17;23.08;;;21.17;;
64157;SDS011;50449;51.528;5.076;2022-11-14T16:01:44;22.85;;;20.85;;
64157;SDS011;50449;51.528;5.076;2022-11-14T16:04:20;23.60;;;21.60;;
64157;SDS011;50449;51.528;5.076;2022-11-14T16:06:52;21.85;;;20.08;;
64157;SDS011;50449;51.528;5.076;2022-11-14T16:09:18;21.42;;;19.65;;
64157;SDS011;50449;51.528;5.076;2022-11-14T16:11:45;21.35;;;19.70;;
64157;SDS011;50449;51.528;5.076;2022-11-14T16:14:11;23.95;;;21.75;;
64157;SDS011;50449;51.528;5.076;2022-11-14T16:16:36;22.50;;;20.48;;
64157;SDS011;50449;51.528;5.076;2022-11-14T16:19:02;21.70;;;19.92;;
64157;SDS011;50449;51.528;5.076;2022-11-14T16:21:29;21.45;;;19.75;;
64157;SDS011;50449;51.528;5.076;2022-11-14T16:23:54;21.45;;;19.77;;
64157;SDS011;50449;51.528;5.076;2022-11-14T16:26:20;20.77;;;19.17;;
64157;SDS011;50449;51.528;5.076;2022-11-14T16:28:45;21.23;;;19.63;;
64157;SDS011;50449;51.528;5.076;2022-11-14T16:31:11;25.10;;;23.00;;
64157;SDS011;50449;51.528;5.076;2022-11-14T16:33:37;21.60;;;19.55;;
64157;SDS011;50449;51.528;5.076;2022-11-14T16:36:02;21.30;;;19.60;;
64157;SDS011;50449;51.528;5.076;2022-11-14T16:38:28;21.92;;;20.08;;
64157;SDS011;50449;51.528;5.076;2022-11-14T16:40:53;22.20;;;20.25;;
64157;SDS011;50449;51.528;5.076;2022-11-14T16:43:18;24.20;;;22.30;;
64157;SDS011;50449;51.528;5.076;2022-11-14T16:45:45;21.65;;;20.05;;
64157;SDS011;50449;51.528;5.076;2022-11-14T16:48:10;25.02;;;22.58;;
64157;SDS011;50449;51.528;5.076;2022-11-14T16:50:36;22.02;;;20.23;;
64157;SDS011;50449;51.528;5.076;2022-11-14T16:53:01;21.30;;;19.58;;
64157;SDS011;50449;51.528;5.076;2022-11-14T16:55:27;20.23;;;18.63;;
64157;SDS011;50449;51.528;5.076;2022-11-14T16:57:52;21.20;;;19.73;;